Norway, Maine
Current Conditions -  °F | °C
As of 11:15 AM on Sunday 25 Jan 2015 (Local Time) from KLEW Reporting Station
Clear Clear  
Wind Chill: 16°   Ceiling: Unl
Heat Index: 28°   Visibility: 10mi
Dew Point:   Wind: 18mph
Humidity: 40%   Direction: 330°NNW
Pressure: 29.52"   Gusts: 25mph
Location:  44.21°N, 70.54°W
Report Text: KLEW 251615Z AUTO 33016G22KT 10SM CLR M02/M14 A2952 RMK AO1
Loading
Personal Weather Stations






























Interactive Weather Map New forecast layout! Learn more

10-Day Weather Forecast

Advertisements
Track Severe Weather on mobile